sensor_id;sensor_type;location;lat;lon;timestamp;temperature;humidity
13798;DHT22;6970;51.340;3.240;2023-12-20T00:02:26;8.50;99.90
13798;DHT22;6970;51.340;3.240;2023-12-20T00:04:55;8.60;99.90
13798;DHT22;6970;51.340;3.240;2023-12-20T00:07:22;8.50;99.90
13798;DHT22;6970;51.340;3.240;2023-12-20T00:09:55;8.50;99.90
13798;DHT22;6970;51.340;3.240;2023-12-20T00:12:22;8.50;99.90
13798;DHT22;6970;51.340;3.240;2023-12-20T00:14:49;8.60;99.90
13798;DHT22;6970;51.340;3.240;2023-12-20T00:17:20;8.50;99.90
13798;DHT22;6970;51.340;3.240;2023-12-20T00:19:47;8.50;99.90
13798;DHT22;6970;51.340;3.240;2023-12-20T00:22:14;8.50;99.90
13798;DHT22;6970;51.340;3.240;2023-12-20T00:24:41;8.60;99.90
13798;DHT22;6970;51.340;3.240;2023-12-20T00:27:09;8.60;99.90
13798;DHT22;6970;51.340;3.240;2023-12-20T00:29:39;8.60;99.90
13798;DHT22;6970;51.340;3.240;2023-12-20T00:32:07;8.60;99.90
13798;DHT22;6970;51.340;3.240;2023-12-20T00:34:34;8.60;99.90
13798;DHT22;6970;51.340;3.240;2023-12-20T00:37:03;8.60;99.90
13798;DHT22;6970;51.340;3.240;2023-12-20T00:39:32;8.60;99.90
13798;DHT22;6970;51.340;3.240;2023-12-20T00:42:03;8.60;99.90
13798;DHT22;6970;51.340;3.240;2023-12-20T00:44:36;8.60;99.90
13798;DHT22;6970;51.340;3.240;2023-12-20T00:47:09;8.60;99.90
13798;DHT22;6970;51.340;3.240;2023-12-20T00:49:37;8.60;99.90
13798;DHT22;6970;51.340;3.240;2023-12-20T00:52:07;8.60;99.90
13798;DHT22;6970;51.340;3.240;2023-12-20T00:54:34;8.60;99.90
13798;DHT22;6970;51.340;3.240;2023-12-20T00:57:04;8.60;99.90
13798;DHT22;6970;51.340;3.240;2023-12-20T00:59:32;8.50;99.90
13798;DHT22;6970;51.340;3.240;2023-12-20T01:01:59;8.50;99.90
13798;DHT22;6970;51.340;3.240;2023-12-20T01:04:29;8.50;99.90
13798;DHT22;6970;51.340;3.240;2023-12-20T01:06:56;8.50;99.90
13798;DHT22;6970;51.340;3.240;2023-12-20T01:09:23;8.50;99.90
13798;DHT22;6970;51.340;3.240;2023-12-20T01:11:56;8.60;99.90
13798;DHT22;6970;51.340;3.240;2023-12-20T01:14:23;8.60;99.90
13798;DHT22;6970;51.340;3.240;2023-12-20T01:16:53;8.60;99.90
13798;DHT22;6970;51.340;3.240;2023-12-20T01:19:21;8.60;99.90
13798;DHT22;6970;51.340;3.240;2023-12-20T01:21:50;8.60;99.90
13798;DHT22;6970;51.340;3.240;2023-12-20T01:24:20;8.60;99.90
13798;DHT22;6970;51.340;3.240;2023-12-20T01:26:50;8.60;99.90
13798;DHT22;6970;51.340;3.240;2023-12-20T01:29:19;8.60;99.90
13798;DHT22;6970;51.340;3.240;2023-12-20T01:31:46;8.50;99.90
13798;DHT22;6970;51.340;3.240;2023-12-20T01:34:17;8.50;99.90
13798;DHT22;6970;51.340;3.240;2023-12-20T01:36:45;8.50;99.90
13798;DHT22;6970;51.340;3.240;2023-12-20T01:39:14;8.50;99.90
13798;DHT22;6970;51.340;3.240;2023-12-20T01:41:55;8.50;99.90
13798;DHT22;6970;51.340;3.240;2023-12-20T01:44:23;8.50;99.90
13798;DHT22;6970;51.340;3.240;2023-12-20T01:46:52;8.50;99.90
13798;DHT22;6970;51.340;3.240;2023-12-20T01:49:21;8.60;99.90
13798;DHT22;6970;51.340;3.240;2023-12-20T01:51:52;8.50;99.90
13798;DHT22;6970;51.340;3.240;2023-12-20T01:54:20;8.50;99.90
13798;DHT22;6970;51.340;3.240;2023-12-20T01:56:49;8.50;99.90
13798;DHT22;6970;51.340;3.240;2023-12-20T01:59:20;8.50;99.90
13798;DHT22;6970;51.340;3.240;2023-12-20T02:01:51;8.50;99.90
13798;DHT22;6970;51.340;3.240;2023-12-20T02:04:18;8.50;99.90
13798;DHT22;6970;51.340;3.240;2023-12-20T02:06:46;8.50;99.90
13798;DHT22;6970;51.340;3.240;2023-12-20T02:09:15;8.50;99.90
13798;DHT22;6970;51.340;3.240;2023-12-20T02:11:43;8.50;99.90
13798;DHT22;6970;51.340;3.240;2023-12-20T02:14:10;8.50;99.90
13798;DHT22;6970;51.340;3.240;2023-12-20T02:16:38;8.50;99.90
13798;DHT22;6970;51.340;3.240;2023-12-20T02:19:13;8.50;99.90
13798;DHT22;6970;51.340;3.240;2023-12-20T02:21:43;8.50;99.90
13798;DHT22;6970;51.340;3.240;2023-12-20T02:24:10;8.50;99.90
13798;DHT22;6970;51.340;3.240;2023-12-20T02:26:40;8.50;99.90
13798;DHT22;6970;51.340;3.240;2023-12-20T02:29:18;8.50;99.90
13798;DHT22;6970;51.340;3.240;2023-12-20T02:31:45;8.50;99.90
13798;DHT22;6970;51.340;3.240;2023-12-20T02:34:15;8.50;99.90
13798;DHT22;6970;51.340;3.240;2023-12-20T02:36:43;8.50;99.90
13798;DHT22;6970;51.340;3.240;2023-12-20T02:39:11;8.50;99.90
13798;DHT22;6970;51.340;3.240;2023-12-20T02:41:38;8.50;99.90
13798;DHT22;6970;51.340;3.240;2023-12-20T02:44:08;8.50;99.90
13798;DHT22;6970;51.340;3.240;2023-12-20T02:46:37;8.50;99.90
13798;DHT22;6970;51.340;3.240;2023-12-20T02:49:05;8.50;99.90
13798;DHT22;6970;51.340;3.240;2023-12-20T02:51:33;8.50;99.90
13798;DHT22;6970;51.340;3.240;2023-12-20T02:54:05;8.50;99.90
13798;DHT22;6970;51.340;3.240;2023-12-20T02:56:34;8.40;99.90
13798;DHT22;6970;51.340;3.240;2023-12-20T02:59:04;8.40;99.90
13798;DHT22;6970;51.340;3.240;2023-12-20T03:01:34;8.50;99.90
13798;DHT22;6970;51.340;3.240;2023-12-20T03:04:02;8.50;99.90
13798;DHT22;6970;51.340;3.240;2023-12-20T03:06:32;8.50;99.90
13798;DHT22;6970;51.340;3.240;2023-12-20T03:09:02;8.50;99.90
13798;DHT22;6970;51.340;3.240;2023-12-20T03:11:32;8.50;99.90
13798;DHT22;6970;51.340;3.240;2023-12-20T03:14:03;8.50;99.90
13798;DHT22;6970;51.340;3.240;2023-12-20T03:16:30;8.50;99.90
13798;DHT22;6970;51.340;3.240;2023-12-20T03:19:02;8.50;99.90
13798;DHT22;6970;51.340;3.240;2023-12-20T03:21:31;8.50;99.90
13798;DHT22;6970;51.340;3.240;2023-12-20T03:23:58;8.50;99.90
13798;DHT22;6970;51.340;3.240;2023-12-20T03:26:27;8.50;99.90
13798;DHT22;6970;51.340;3.240;2023-12-20T03:28:57;8.50;99.90
13798;DHT22;6970;51.340;3.240;2023-12-20T03:31:27;8.50;99.90
13798;DHT22;6970;51.340;3.240;2023-12-20T03:33:57;8.50;99.90
13798;DHT22;6970;51.340;3.240;2023-12-20T03:36:26;8.40;99.90
13798;DHT22;6970;51.340;3.240;2023-12-20T03:38:56;8.50;99.90
13798;DHT22;6970;51.340;3.240;2023-12-20T03:41:27;8.50;99.90
13798;DHT22;6970;51.340;3.240;2023-12-20T03:43:54;8.40;99.90
13798;DHT22;6970;51.340;3.240;2023-12-20T03:46:23;8.40;99.90
13798;DHT22;6970;51.340;3.240;2023-12-20T03:48:56;8.40;99.90
13798;DHT22;6970;51.340;3.240;2023-12-20T03:51:26;8.40;99.90
13798;DHT22;6970;51.340;3.240;2023-12-20T03:53:53;8.40;99.90
13798;DHT22;6970;51.340;3.240;2023-12-20T03:56:20;8.40;99.90
13798;DHT22;6970;51.340;3.240;2023-12-20T03:58:50;8.40;99.90
13798;DHT22;6970;51.340;3.240;2023-12-20T04:01:19;8.40;99.90
13798;DHT22;6970;51.340;3.240;2023-12-20T04:03:46;8.40;99.90
13798;DHT22;6970;51.340;3.240;2023-12-20T04:06:18;8.40;99.90
13798;DHT22;6970;51.340;3.240;2023-12-20T04:08:46;8.40;99.90
13798;DHT22;6970;51.340;3.240;2023-12-20T04:11:14;8.40;99.90
13798;DHT22;6970;51.340;3.240;2023-12-20T04:13:44;8.30;99.90
13798;DHT22;6970;51.340;3.240;2023-12-20T04:16:14;8.40;99.90
13798;DHT22;6970;51.340;3.240;2023-12-20T04:18:43;8.40;99.90
13798;DHT22;6970;51.340;3.240;2023-12-20T04:21:10;8.30;99.90
13798;DHT22;6970;51.340;3.240;2023-12-20T04:23:37;8.30;99.90
13798;DHT22;6970;51.340;3.240;2023-12-20T04:26:05;8.30;99.90
13798;DHT22;6970;51.340;3.240;2023-12-20T04:28:33;8.30;99.90
13798;DHT22;6970;51.340;3.240;2023-12-20T04:31:03;8.30;99.90
13798;DHT22;6970;51.340;3.240;2023-12-20T04:33:32;8.30;99.90
13798;DHT22;6970;51.340;3.240;2023-12-20T04:36:02;8.30;99.90
13798;DHT22;6970;51.340;3.240;2023-12-20T04:38:30;8.30;99.90
13798;DHT22;6970;51.340;3.240;2023-12-20T04:40:58;8.30;99.90
13798;DHT22;6970;51.340;3.240;2023-12-20T04:43:28;8.30;99.90
13798;DHT22;6970;51.340;3.240;2023-12-20T04:45:57;8.30;99.90
13798;DHT22;6970;51.340;3.240;2023-12-20T04:48:27;8.30;99.90
13798;DHT22;6970;51.340;3.240;2023-12-20T04:50:58;8.30;99.90
13798;DHT22;6970;51.340;3.240;2023-12-20T04:53:31;8.30;99.90
13798;DHT22;6970;51.340;3.240;2023-12-20T04:55:58;8.30;99.90
13798;DHT22;6970;51.340;3.240;2023-12-20T04:58:28;8.30;99.90
13798;DHT22;6970;51.340;3.240;2023-12-20T05:00:55;8.30;99.90
13798;DHT22;6970;51.340;3.240;2023-12-20T05:03:22;8.30;99.90
13798;DHT22;6970;51.340;3.240;2023-12-20T05:05:50;8.30;99.90
13798;DHT22;6970;51.340;3.240;2023-12-20T05:08:17;8.30;99.90
13798;DHT22;6970;51.340;3.240;2023-12-20T05:10:45;8.20;99.90
13798;DHT22;6970;51.340;3.240;2023-12-20T05:13:12;8.20;99.90
13798;DHT22;6970;51.340;3.240;2023-12-20T05:15:40;8.30;99.90
13798;DHT22;6970;51.340;3.240;2023-12-20T05:18:09;8.30;99.90
13798;DHT22;6970;51.340;3.240;2023-12-20T05:20:36;8.30;99.90
13798;DHT22;6970;51.340;3.240;2023-12-20T05:23:07;8.30;99.90
13798;DHT22;6970;51.340;3.240;2023-12-20T05:25:34;8.30;99.90
13798;DHT22;6970;51.340;3.240;2023-12-20T05:28:04;8.30;99.90
13798;DHT22;6970;51.340;3.240;2023-12-20T05:30:31;8.30;99.90
13798;DHT22;6970;51.340;3.240;2023-12-20T05:32:58;8.30;99.90
13798;DHT22;6970;51.340;3.240;2023-12-20T05:35:29;8.30;99.90
13798;DHT22;6970;51.340;3.240;2023-12-20T05:37:56;8.30;99.90
13798;DHT22;6970;51.340;3.240;2023-12-20T05:40:23;8.30;99.90
13798;DHT22;6970;51.340;3.240;2023-12-20T05:42:52;8.30;99.90
13798;DHT22;6970;51.340;3.240;2023-12-20T05:45:19;8.30;99.90
13798;DHT22;6970;51.340;3.240;2023-12-20T05:47:46;8.30;99.90
13798;DHT22;6970;51.340;3.240;2023-12-20T05:50:17;8.30;99.90
13798;DHT22;6970;51.340;3.240;2023-12-20T05:52:44;8.30;99.90
13798;DHT22;6970;51.340;3.240;2023-12-20T05:55:11;8.30;99.90
13798;DHT22;6970;51.340;3.240;2023-12-20T05:57:39;8.30;99.90
13798;DHT22;6970;51.340;3.240;2023-12-20T06:00:09;8.20;99.90
13798;DHT22;6970;51.340;3.240;2023-12-20T06:02:40;8.20;99.90
13798;DHT22;6970;51.340;3.240;2023-12-20T06:05:09;8.30;99.90
13798;DHT22;6970;51.340;3.240;2023-12-20T06:07:37;8.30;99.90
13798;DHT22;6970;51.340;3.240;2023-12-20T06:10:07;8.30;99.90
13798;DHT22;6970;51.340;3.240;2023-12-20T06:12:34;8.20;99.90
13798;DHT22;6970;51.340;3.240;2023-12-20T06:15:06;8.20;99.90
13798;DHT22;6970;51.340;3.240;2023-12-20T06:17:34;8.20;99.90
13798;DHT22;6970;51.340;3.240;2023-12-20T06:20:05;8.20;99.90
13798;DHT22;6970;51.340;3.240;2023-12-20T06:22:35;8.20;99.90
13798;DHT22;6970;51.340;3.240;2023-12-20T06:25:03;8.20;99.90
13798;DHT22;6970;51.340;3.240;2023-12-20T06:27:30;8.20;99.90
13798;DHT22;6970;51.340;3.240;2023-12-20T06:29:59;8.20;99.90
13798;DHT22;6970;51.340;3.240;2023-12-20T06:32:32;8.20;99.90
13798;DHT22;6970;51.340;3.240;2023-12-20T06:35:01;8.20;99.90
13798;DHT22;6970;51.340;3.240;2023-12-20T06:37:31;8.20;99.90
13798;DHT22;6970;51.340;3.240;2023-12-20T06:39:58;8.20;99.90
13798;DHT22;6970;51.340;3.240;2023-12-20T06:42:27;8.20;99.90
13798;DHT22;6970;51.340;3.240;2023-12-20T06:44:58;8.20;99.90
13798;DHT22;6970;51.340;3.240;2023-12-20T06:47:28;8.30;99.90
13798;DHT22;6970;51.340;3.240;2023-12-20T06:49:58;8.20;99.90
13798;DHT22;6970;51.340;3.240;2023-12-20T06:52:28;8.20;99.90
13798;DHT22;6970;51.340;3.240;2023-12-20T06:54:56;8.20;99.90
13798;DHT22;6970;51.340;3.240;2023-12-20T06:57:23;8.20;99.90
13798;DHT22;6970;51.340;3.240;2023-12-20T06:59:53;8.20;99.90
13798;DHT22;6970;51.340;3.240;2023-12-20T07:02:21;8.20;99.90
13798;DHT22;6970;51.340;3.240;2023-12-20T07:04:51;8.20;99.90
13798;DHT22;6970;51.340;3.240;2023-12-20T07:07:18;8.20;99.90
13798;DHT22;6970;51.340;3.240;2023-12-20T07:09:45;8.30;99.90
13798;DHT22;6970;51.340;3.240;2023-12-20T07:12:13;8.30;99.90
13798;DHT22;6970;51.340;3.240;2023-12-20T07:14:42;8.30;99.90
13798;DHT22;6970;51.340;3.240;2023-12-20T07:17:10;8.30;99.90
13798;DHT22;6970;51.340;3.240;2023-12-20T07:19:43;8.30;99.90
13798;DHT22;6970;51.340;3.240;2023-12-20T07:22:10;8.30;99.90
13798;DHT22;6970;51.340;3.240;2023-12-20T07:24:40;8.30;99.90
13798;DHT22;6970;51.340;3.240;2023-12-20T07:27:10;8.30;99.90
13798;DHT22;6970;51.340;3.240;2023-12-20T07:29:40;8.20;99.90
13798;DHT22;6970;51.340;3.240;2023-12-20T07:32:07;8.20;99.90
13798;DHT22;6970;51.340;3.240;2023-12-20T07:34:35;8.30;99.90
13798;DHT22;6970;51.340;3.240;2023-12-20T07:37:04;8.30;99.90
13798;DHT22;6970;51.340;3.240;2023-12-20T07:39:31;8.30;99.90
13798;DHT22;6970;51.340;3.240;2023-12-20T07:42:00;8.30;99.90
13798;DHT22;6970;51.340;3.240;2023-12-20T07:44:27;8.30;99.90
13798;DHT22;6970;51.340;3.240;2023-12-20T07:46:54;8.30;99.90
13798;DHT22;6970;51.340;3.240;2023-12-20T07:49:21;8.30;99.90
13798;DHT22;6970;51.340;3.240;2023-12-20T07:51:50;8.30;99.90
13798;DHT22;6970;51.340;3.240;2023-12-20T07:54:18;8.30;99.90
13798;DHT22;6970;51.340;3.240;2023-12-20T07:56:49;8.30;99.90
13798;DHT22;6970;51.340;3.240;2023-12-20T07:59:18;8.40;99.90
13798;DHT22;6970;51.340;3.240;2023-12-20T08:01:59;8.40;99.90
13798;DHT22;6970;51.340;3.240;2023-12-20T08:04:29;8.40;99.90
13798;DHT22;6970;51.340;3.240;2023-12-20T08:06:57;8.50;99.90
13798;DHT22;6970;51.340;3.240;2023-12-20T08:09:27;8.60;99.90
13798;DHT22;6970;51.340;3.240;2023-12-20T08:11:54;8.70;99.90
13798;DHT22;6970;51.340;3.240;2023-12-20T08:14:24;8.90;99.90
13798;DHT22;6970;51.340;3.240;2023-12-20T08:16:52;9.10;99.90
13798;DHT22;6970;51.340;3.240;2023-12-20T08:19:21;9.40;99.90
13798;DHT22;6970;51.340;3.240;2023-12-20T08:21:51;9.60;99.90
13798;DHT22;6970;51.340;3.240;2023-12-20T08:24:18;9.80;99.90
13798;DHT22;6970;51.340;3.240;2023-12-20T08:26:46;9.80;99.90
13798;DHT22;6970;51.340;3.240;2023-12-20T08:29:14;9.60;99.90
13798;DHT22;6970;51.340;3.240;2023-12-20T08:31:41;9.40;99.90
13798;DHT22;6970;51.340;3.240;2023-12-20T08:34:08;9.30;99.90
13798;DHT22;6970;51.340;3.240;2023-12-20T08:36:36;9.20;99.90
13798;DHT22;6970;51.340;3.240;2023-12-20T08:39:04;9.20;99.90
13798;DHT22;6970;51.340;3.240;2023-12-20T08:41:35;9.20;99.90
13798;DHT22;6970;51.340;3.240;2023-12-20T08:44:02;9.10;99.90
13798;DHT22;6970;51.340;3.240;2023-12-20T08:46:33;9.10;99.90
13798;DHT22;6970;51.340;3.240;2023-12-20T08:49:03;9.10;99.90
13798;DHT22;6970;51.340;3.240;2023-12-20T08:51:31;9.10;99.90
13798;DHT22;6970;51.340;3.240;2023-12-20T08:54:01;9.10;99.90
13798;DHT22;6970;51.340;3.240;2023-12-20T08:56:31;9.20;99.90
13798;DHT22;6970;51.340;3.240;2023-12-20T08:58:58;9.20;99.90
13798;DHT22;6970;51.340;3.240;2023-12-20T09:01:27;9.20;99.90
13798;DHT22;6970;51.340;3.240;2023-12-20T09:03:58;9.20;99.90
13798;DHT22;6970;51.340;3.240;2023-12-20T09:06:28;9.20;99.90
13798;DHT22;6970;51.340;3.240;2023-12-20T09:09:01;9.20;99.90
13798;DHT22;6970;51.340;3.240;2023-12-20T09:11:31;9.20;99.90
13798;DHT22;6970;51.340;3.240;2023-12-20T09:13:58;9.20;99.90
13798;DHT22;6970;51.340;3.240;2023-12-20T09:16:27;9.30;99.90
13798;DHT22;6970;51.340;3.240;2023-12-20T09:18:55;9.30;99.90
13798;DHT22;6970;51.340;3.240;2023-12-20T09:21:22;9.30;99.90
13798;DHT22;6970;51.340;3.240;2023-12-20T09:23:49;9.30;99.90
13798;DHT22;6970;51.340;3.240;2023-12-20T09:26:18;9.20;99.90
13798;DHT22;6970;51.340;3.240;2023-12-20T09:28:45;9.20;99.90
13798;DHT22;6970;51.340;3.240;2023-12-20T09:31:14;9.30;99.90
13798;DHT22;6970;51.340;3.240;2023-12-20T09:33:44;9.30;99.90
13798;DHT22;6970;51.340;3.240;2023-12-20T09:36:12;9.30;99.90
13798;DHT22;6970;51.340;3.240;2023-12-20T09:38:43;9.30;99.90
13798;DHT22;6970;51.340;3.240;2023-12-20T09:41:13;9.30;99.90
13798;DHT22;6970;51.340;3.240;2023-12-20T09:43:42;9.30;99.90
13798;DHT22;6970;51.340;3.240;2023-12-20T09:46:12;9.40;99.90
13798;DHT22;6970;51.340;3.240;2023-12-20T09:48:41;9.40;99.90
13798;DHT22;6970;51.340;3.240;2023-12-20T09:51:09;9.40;99.90
13798;DHT22;6970;51.340;3.240;2023-12-20T09:53:40;9.40;99.90
13798;DHT22;6970;51.340;3.240;2023-12-20T09:56:08;9.50;99.90
13798;DHT22;6970;51.340;3.240;2023-12-20T09:58:40;9.50;99.90
13798;DHT22;6970;51.340;3.240;2023-12-20T10:01:10;9.50;99.90
13798;DHT22;6970;51.340;3.240;2023-12-20T10:03:41;9.50;99.90
13798;DHT22;6970;51.340;3.240;2023-12-20T10:06:09;9.50;99.90
13798;DHT22;6970;51.340;3.240;2023-12-20T10:08:38;9.60;99.90
13798;DHT22;6970;51.340;3.240;2023-12-20T10:11:06;9.70;99.90
13798;DHT22;6970;51.340;3.240;2023-12-20T10:13:34;9.70;99.90
13798;DHT22;6970;51.340;3.240;2023-12-20T10:16:04;9.70;99.90
13798;DHT22;6970;51.340;3.240;2023-12-20T10:18:34;9.60;99.90
13798;DHT22;6970;51.340;3.240;2023-12-20T10:21:07;9.60;99.90
13798;DHT22;6970;51.340;3.240;2023-12-20T10:23:38;9.70;99.90
13798;DHT22;6970;51.340;3.240;2023-12-20T10:26:07;9.70;99.90
13798;DHT22;6970;51.340;3.240;2023-12-20T10:28:35;9.80;99.90
13798;DHT22;6970;51.340;3.240;2023-12-20T10:31:02;9.80;99.90
13798;DHT22;6970;51.340;3.240;2023-12-20T10:33:31;9.80;99.90
13798;DHT22;6970;51.340;3.240;2023-12-20T10:36:04;9.80;99.90
13798;DHT22;6970;51.340;3.240;2023-12-20T10:38:35;9.80;99.90
13798;DHT22;6970;51.340;3.240;2023-12-20T10:41:07;9.80;99.90
13798;DHT22;6970;51.340;3.240;2023-12-20T10:43:37;9.80;99.90
13798;DHT22;6970;51.340;3.240;2023-12-20T10:46:06;9.80;99.90
13798;DHT22;6970;51.340;3.240;2023-12-20T10:48:34;9.80;99.90
13798;DHT22;6970;51.340;3.240;2023-12-20T10:51:06;9.80;99.90
13798;DHT22;6970;51.340;3.240;2023-12-20T10:53:33;9.80;99.90
13798;DHT22;6970;51.340;3.240;2023-12-20T10:56:03;9.80;99.90
13798;DHT22;6970;51.340;3.240;2023-12-20T10:58:33;9.80;99.90
13798;DHT22;6970;51.340;3.240;2023-12-20T11:01:02;9.90;99.90
13798;DHT22;6970;51.340;3.240;2023-12-20T11:03:35;9.90;99.90
13798;DHT22;6970;51.340;3.240;2023-12-20T11:08:58;9.90;99.90
13798;DHT22;6970;51.340;3.240;2023-12-20T11:11:52;9.90;99.90
13798;DHT22;6970;51.340;3.240;2023-12-20T11:14:27;10.00;99.90
13798;DHT22;6970;51.340;3.240;2023-12-20T11:22:24;10.00;99.90
13798;DHT22;6970;51.340;3.240;2023-12-20T11:24:54;10.00;99.90
13798;DHT22;6970;51.340;3.240;2023-12-20T11:27:24;9.90;99.90
13798;DHT22;6970;51.340;3.240;2023-12-20T11:29:57;9.90;99.90
13798;DHT22;6970;51.340;3.240;2023-12-20T11:32:29;9.90;99.90
13798;DHT22;6970;51.340;3.240;2023-12-20T11:34:59;9.90;99.90
13798;DHT22;6970;51.340;3.240;2023-12-20T11:37:35;9.90;99.90
13798;DHT22;6970;51.340;3.240;2023-12-20T11:40:06;10.00;99.90
13798;DHT22;6970;51.340;3.240;2023-12-20T11:42:38;10.10;99.90
13798;DHT22;6970;51.340;3.240;2023-12-20T11:45:18;10.20;99.90
13798;DHT22;6970;51.340;3.240;2023-12-20T11:47:52;10.50;99.90
13798;DHT22;6970;51.340;3.240;2023-12-20T11:50:22;10.70;99.90
13798;DHT22;6970;51.340;3.240;2023-12-20T11:52:53;10.80;99.90
13798;DHT22;6970;51.340;3.240;2023-12-20T11:55:23;11.00;99.90
13798;DHT22;6970;51.340;3.240;2023-12-20T11:57:51;11.10;99.90
13798;DHT22;6970;51.340;3.240;2023-12-20T12:00:21;11.20;99.90
13798;DHT22;6970;51.340;3.240;2023-12-20T12:02:56;11.10;99.90
13798;DHT22;6970;51.340;3.240;2023-12-20T12:05:25;11.10;99.90
13798;DHT22;6970;51.340;3.240;2023-12-20T12:07:56;11.00;99.90
13798;DHT22;6970;51.340;3.240;2023-12-20T12:10:23;10.90;99.90
13798;DHT22;6970;51.340;3.240;2023-12-20T12:12:51;10.90;99.90
13798;DHT22;6970;51.340;3.240;2023-12-20T12:15:25;10.90;99.90
13798;DHT22;6970;51.340;3.240;2023-12-20T12:17:57;10.90;99.90
13798;DHT22;6970;51.340;3.240;2023-12-20T12:20:25;10.90;99.90
13798;DHT22;6970;51.340;3.240;2023-12-20T12:23:05;11.00;99.90
13798;DHT22;6970;51.340;3.240;2023-12-20T12:25:36;11.10;99.90
13798;DHT22;6970;51.340;3.240;2023-12-20T12:28:11;11.30;99.90
13798;DHT22;6970;51.340;3.240;2023-12-20T12:30:41;11.50;99.90
13798;DHT22;6970;51.340;3.240;2023-12-20T12:33:20;11.50;99.90
13798;DHT22;6970;51.340;3.240;2023-12-20T12:35:54;11.50;99.90
13798;DHT22;6970;51.340;3.240;2023-12-20T12:38:24;11.50;99.90
13798;DHT22;6970;51.340;3.240;2023-12-20T12:40:51;11.60;99.90
13798;DHT22;6970;51.340;3.240;2023-12-20T12:43:20;11.60;99.90
13798;DHT22;6970;51.340;3.240;2023-12-20T12:45:50;11.70;99.90
13798;DHT22;6970;51.340;3.240;2023-12-20T12:48:19;11.60;99.90
13798;DHT22;6970;51.340;3.240;2023-12-20T12:50:49;11.60;99.90
13798;DHT22;6970;51.340;3.240;2023-12-20T12:53:20;11.50;99.90
13798;DHT22;6970;51.340;3.240;2023-12-20T12:55:47;11.40;99.90
13798;DHT22;6970;51.340;3.240;2023-12-20T12:58:15;11.30;99.90
13798;DHT22;6970;51.340;3.240;2023-12-20T13:00:49;11.30;99.90
13798;DHT22;6970;51.340;3.240;2023-12-20T13:03:20;11.20;99.90
13798;DHT22;6970;51.340;3.240;2023-12-20T13:05:50;11.10;99.90
13798;DHT22;6970;51.340;3.240;2023-12-20T13:08:20;11.00;99.90
13798;DHT22;6970;51.340;3.240;2023-12-20T13:10:53;10.90;99.90
13798;DHT22;6970;51.340;3.240;2023-12-20T13:13:23;10.70;99.90
13798;DHT22;6970;51.340;3.240;2023-12-20T13:15:53;10.60;99.90
13798;DHT22;6970;51.340;3.240;2023-12-20T13:18:22;10.50;99.90
13798;DHT22;6970;51.340;3.240;2023-12-20T13:20:50;10.50;99.90
13798;DHT22;6970;51.340;3.240;2023-12-20T13:23:19;10.40;99.90
13798;DHT22;6970;51.340;3.240;2023-12-20T13:25:46;10.50;99.90
13798;DHT22;6970;51.340;3.240;2023-12-20T13:28:16;10.50;99.90
13798;DHT22;6970;51.340;3.240;2023-12-20T13:30:46;10.50;99.90
13798;DHT22;6970;51.340;3.240;2023-12-20T13:33:13;10.40;99.90
13798;DHT22;6970;51.340;3.240;2023-12-20T13:35:43;10.40;99.90
13798;DHT22;6970;51.340;3.240;2023-12-20T13:38:13;10.40;99.90
13798;DHT22;6970;51.340;3.240;2023-12-20T13:40:44;10.40;99.90
13798;DHT22;6970;51.340;3.240;2023-12-20T13:43:12;10.30;99.90
13798;DHT22;6970;51.340;3.240;2023-12-20T13:45:47;10.40;99.90
13798;DHT22;6970;51.340;3.240;2023-12-20T13:48:18;10.30;99.90
13798;DHT22;6970;51.340;3.240;2023-12-20T13:50:47;10.40;99.90
13798;DHT22;6970;51.340;3.240;2023-12-20T13:53:15;10.40;99.90
13798;DHT22;6970;51.340;3.240;2023-12-20T13:55:42;10.50;99.90
13798;DHT22;6970;51.340;3.240;2023-12-20T13:58:09;10.60;99.90
13798;DHT22;6970;51.340;3.240;2023-12-20T14:00:40;10.60;99.90
13798;DHT22;6970;51.340;3.240;2023-12-20T14:03:10;10.60;99.90
13798;DHT22;6970;51.340;3.240;2023-12-20T14:05:40;10.70;99.90
13798;DHT22;6970;51.340;3.240;2023-12-20T14:08:10;10.60;99.90
13798;DHT22;6970;51.340;3.240;2023-12-20T14:10:49;10.60;99.90
13798;DHT22;6970;51.340;3.240;2023-12-20T14:13:20;10.60;99.90
13798;DHT22;6970;51.340;3.240;2023-12-20T14:15:50;10.50;99.90
13798;DHT22;6970;51.340;3.240;2023-12-20T14:18:20;10.50;99.90
13798;DHT22;6970;51.340;3.240;2023-12-20T14:20:49;10.50;99.90
13798;DHT22;6970;51.340;3.240;2023-12-20T14:23:20;10.40;99.90
13798;DHT22;6970;51.340;3.240;2023-12-20T14:25:48;10.40;99.90
13798;DHT22;6970;51.340;3.240;2023-12-20T14:28:19;10.40;99.90
13798;DHT22;6970;51.340;3.240;2023-12-20T14:30:48;10.30;99.90
13798;DHT22;6970;51.340;3.240;2023-12-20T14:33:19;10.30;99.90
13798;DHT22;6970;51.340;3.240;2023-12-20T14:35:50;10.20;99.90
13798;DHT22;6970;51.340;3.240;2023-12-20T14:38:18;10.20;99.90
13798;DHT22;6970;51.340;3.240;2023-12-20T14:40:47;10.20;99.90
13798;DHT22;6970;51.340;3.240;2023-12-20T14:43:17;10.20;99.90
13798;DHT22;6970;51.340;3.240;2023-12-20T14:45:44;10.20;99.90
13798;DHT22;6970;51.340;3.240;2023-12-20T14:48:12;10.20;99.90
13798;DHT22;6970;51.340;3.240;2023-12-20T14:50:39;10.20;99.90
13798;DHT22;6970;51.340;3.240;2023-12-20T14:53:08;10.20;99.90
13798;DHT22;6970;51.340;3.240;2023-12-20T14:55:35;10.10;99.90
13798;DHT22;6970;51.340;3.240;2023-12-20T14:58:05;10.10;99.90
13798;DHT22;6970;51.340;3.240;2023-12-20T15:00:35;10.10;99.90
13798;DHT22;6970;51.340;3.240;2023-12-20T15:03:03;10.20;99.90
13798;DHT22;6970;51.340;3.240;2023-12-20T15:05:32;10.20;99.90
13798;DHT22;6970;51.340;3.240;2023-12-20T15:08:03;10.20;99.90
13798;DHT22;6970;51.340;3.240;2023-12-20T15:10:32;10.10;99.90
13798;DHT22;6970;51.340;3.240;2023-12-20T15:12:59;10.20;99.90
13798;DHT22;6970;51.340;3.240;2023-12-20T15:15:28;10.20;99.90
13798;DHT22;6970;51.340;3.240;2023-12-20T15:18:01;10.20;99.90
13798;DHT22;6970;51.340;3.240;2023-12-20T15:20:33;10.10;99.90
13798;DHT22;6970;51.340;3.240;2023-12-20T15:23:00;10.10;99.90
13798;DHT22;6970;51.340;3.240;2023-12-20T15:25:33;10.10;99.90
13798;DHT22;6970;51.340;3.240;2023-12-20T15:28:02;10.10;99.90
13798;DHT22;6970;51.340;3.240;2023-12-20T15:30:33;10.10;99.90
13798;DHT22;6970;51.340;3.240;2023-12-20T15:33:00;10.10;99.90
13798;DHT22;6970;51.340;3.240;2023-12-20T15:35:34;10.10;99.90
13798;DHT22;6970;51.340;3.240;2023-12-20T15:38:02;10.10;99.90
13798;DHT22;6970;51.340;3.240;2023-12-20T15:40:33;10.10;99.90
13798;DHT22;6970;51.340;3.240;2023-12-20T15:43:03;10.10;99.90
13798;DHT22;6970;51.340;3.240;2023-12-20T15:45:33;10.10;99.90
13798;DHT22;6970;51.340;3.240;2023-12-20T15:48:01;10.10;99.90
13798;DHT22;6970;51.340;3.240;2023-12-20T15:50:31;10.10;99.90
13798;DHT22;6970;51.340;3.240;2023-12-20T15:53:02;10.20;99.90
13798;DHT22;6970;51.340;3.240;2023-12-20T15:55:30;10.10;99.90
13798;DHT22;6970;51.340;3.240;2023-12-20T15:57:58;10.20;99.90
13798;DHT22;6970;51.340;3.240;2023-12-20T16:00:29;10.20;99.90
13798;DHT22;6970;51.340;3.240;2023-12-20T16:02:59;10.20;99.90
13798;DHT22;6970;51.340;3.240;2023-12-20T16:05:27;10.20;99.90
13798;DHT22;6970;51.340;3.240;2023-12-20T16:08:00;10.20;99.90
13798;DHT22;6970;51.340;3.240;2023-12-20T16:10:30;10.10;99.90
13798;DHT22;6970;51.340;3.240;2023-12-20T16:12:59;10.10;99.90
13798;DHT22;6970;51.340;3.240;2023-12-20T16:15:29;10.20;99.90
13798;DHT22;6970;51.340;3.240;2023-12-20T16:17:59;10.10;99.90
13798;DHT22;6970;51.340;3.240;2023-12-20T16:20:29;10.10;99.90